sensor_id;sensor_type;location;lat;lon;timestamp;pressure;altitude;pressure_sealevel;temperature;humidity
68807;BME280;55800;54.272;18.558;2023-06-26T00:02:09;101045.00;;;14.96;53.63
68807;BME280;55800;54.272;18.558;2023-06-26T00:04:38;101045.34;;;14.90;53.31
68807;BME280;55800;54.272;18.558;2023-06-26T00:07:07;101038.53;;;14.83;54.20
68807;BME280;55800;54.272;18.558;2023-06-26T00:09:37;101043.34;;;14.76;56.12
68807;BME280;55800;54.272;18.558;2023-06-26T00:12:07;101036.50;;;14.71;54.86
68807;BME280;55800;54.272;18.558;2023-06-26T00:14:36;101040.06;;;14.71;53.87
68807;BME280;55800;54.272;18.558;2023-06-26T00:17:05;101033.63;;;14.74;53.77
68807;BME280;55800;54.272;18.558;2023-06-26T00:19:36;101035.59;;;14.70;53.29
68807;BME280;55800;54.272;18.558;2023-06-26T00:22:05;101043.91;;;14.66;53.91
68807;BME280;55800;54.272;18.558;2023-06-26T00:24:34;101043.13;;;14.64;51.41
68807;BME280;55800;54.272;18.558;2023-06-26T00:27:03;101036.16;;;14.60;53.93
68807;BME280;55800;54.272;18.558;2023-06-26T00:29:33;101033.88;;;14.52;57.35
68807;BME280;55800;54.272;18.558;2023-06-26T00:32:03;101029.84;;;14.44;58.96
68807;BME280;55800;54.272;18.558;2023-06-26T00:34:35;101037.13;;;14.42;59.89
68807;BME280;55800;54.272;18.558;2023-06-26T00:37:04;101027.28;;;14.41;58.57
68807;BME280;55800;54.272;18.558;2023-06-26T00:39:34;101028.19;;;14.41;58.48
68807;BME280;55800;54.272;18.558;2023-06-26T00:42:03;101035.47;;;14.39;57.86
68807;BME280;55800;54.272;18.558;2023-06-26T00:44:35;101035.38;;;14.41;57.72
68807;BME280;55800;54.272;18.558;2023-06-26T00:47:04;101042.78;;;14.36;59.40
68807;BME280;55800;54.272;18.558;2023-06-26T00:49:35;101039.47;;;14.31;59.37
68807;BME280;55800;54.272;18.558;2023-06-26T00:52:05;101046.66;;;14.30;57.88
68807;BME280;55800;54.272;18.558;2023-06-26T00:54:35;101030.72;;;14.26;59.41
68807;BME280;55800;54.272;18.558;2023-06-26T00:57:04;101036.28;;;14.23;58.97
68807;BME280;55800;54.272;18.558;2023-06-26T00:59:34;101033.59;;;14.23;60.17
68807;BME280;55800;54.272;18.558;2023-06-26T01:02:04;101031.19;;;14.17;58.90
68807;BME280;55800;54.272;18.558;2023-06-26T01:04:35;101030.34;;;14.16;60.40
68807;BME280;55800;54.272;18.558;2023-06-26T01:07:06;101024.94;;;14.16;57.70
68807;BME280;55800;54.272;18.558;2023-06-26T01:09:36;101031.19;;;14.17;58.74
68807;BME280;55800;54.272;18.558;2023-06-26T01:12:06;101034.84;;;14.16;58.75
68807;BME280;55800;54.272;18.558;2023-06-26T01:14:35;101033.34;;;14.10;60.15
68807;BME280;55800;54.272;18.558;2023-06-26T01:17:05;101018.84;;;14.13;59.83
68807;BME280;55800;54.272;18.558;2023-06-26T01:19:36;101028.00;;;14.08;60.53
68807;BME280;55800;54.272;18.558;2023-06-26T01:22:19;101022.81;;;14.05;60.77
68807;BME280;55800;54.272;18.558;2023-06-26T01:25:03;101024.53;;;14.06;60.11
68807;BME280;55800;54.272;18.558;2023-06-26T01:27:39;101012.09;;;14.04;59.71
68807;BME280;55800;54.272;18.558;2023-06-26T01:30:11;101018.56;;;14.00;59.44
68807;BME280;55800;54.272;18.558;2023-06-26T01:32:41;101014.38;;;13.94;60.54
68807;BME280;55800;54.272;18.558;2023-06-26T01:35:11;101016.13;;;13.95;59.08
68807;BME280;55800;54.272;18.558;2023-06-26T01:37:41;101011.84;;;13.91;60.42
68807;BME280;55800;54.272;18.558;2023-06-26T01:40:10;101009.09;;;13.93;59.08
68807;BME280;55800;54.272;18.558;2023-06-26T01:42:41;101003.94;;;13.88;58.88
68807;BME280;55800;54.272;18.558;2023-06-26T01:45:13;101003.16;;;13.86;59.05
68807;BME280;55800;54.272;18.558;2023-06-26T01:47:50;101006.16;;;13.80;62.02
68807;BME280;55800;54.272;18.558;2023-06-26T01:50:24;101011.44;;;13.82;60.88
68807;BME280;55800;54.272;18.558;2023-06-26T01:53:00;101004.38;;;13.79;60.19
68807;BME280;55800;54.272;18.558;2023-06-26T01:55:35;100998.22;;;13.77;60.50
68807;BME280;55800;54.272;18.558;2023-06-26T01:58:08;101001.84;;;13.76;59.51
68807;BME280;55800;54.272;18.558;2023-06-26T02:00:38;101006.38;;;13.76;60.41
68807;BME280;55800;54.272;18.558;2023-06-26T02:03:08;101007.28;;;13.75;60.41
68807;BME280;55800;54.272;18.558;2023-06-26T02:05:39;101002.09;;;13.72;60.65
68807;BME280;55800;54.272;18.558;2023-06-26T02:08:10;101001.22;;;13.71;60.65
68807;BME280;55800;54.272;18.558;2023-06-26T02:10:39;100997.81;;;13.68;59.27
68807;BME280;55800;54.272;18.558;2023-06-26T02:13:10;100995.03;;;13.69;60.00
68807;BME280;55800;54.272;18.558;2023-06-26T02:15:40;100994.06;;;13.70;61.78
68807;BME280;55800;54.272;18.558;2023-06-26T02:18:09;101003.09;;;13.69;62.74
68807;BME280;55800;54.272;18.558;2023-06-26T02:20:38;100997.88;;;13.66;62.35
68807;BME280;55800;54.272;18.558;2023-06-26T02:23:08;100992.50;;;13.66;64.69
68807;BME280;55800;54.272;18.558;2023-06-26T02:25:37;101003.41;;;13.63;65.32
68807;BME280;55800;54.272;18.558;2023-06-26T02:28:06;100998.81;;;13.65;64.12
68807;BME280;55800;54.272;18.558;2023-06-26T02:33:50;100991.59;;;13.66;63.25
68807;BME280;55800;54.272;18.558;2023-06-26T02:36:20;100997.06;;;13.64;60.95
68807;BME280;55800;54.272;18.558;2023-06-26T02:38:49;100987.13;;;13.66;60.52
68807;BME280;55800;54.272;18.558;2023-06-26T02:41:19;100986.09;;;13.69;62.60
68807;BME280;55800;54.272;18.558;2023-06-26T02:43:48;100979.13;;;13.65;59.31
68807;BME280;55800;54.272;18.558;2023-06-26T02:46:18;100980.94;;;13.64;58.79
68807;BME280;55800;54.272;18.558;2023-06-26T02:48:47;100985.97;;;13.72;60.18
68807;BME280;55800;54.272;18.558;2023-06-26T02:51:18;100984.06;;;13.74;62.91
68807;BME280;55800;54.272;18.558;2023-06-26T02:53:48;100979.41;;;13.77;63.02
68807;BME280;55800;54.272;18.558;2023-06-26T02:56:17;100979.41;;;13.77;65.25
68807;BME280;55800;54.272;18.558;2023-06-26T02:58:46;100984.06;;;13.74;59.41
68807;BME280;55800;54.272;18.558;2023-06-26T03:01:15;100986.22;;;13.66;58.63
68807;BME280;55800;54.272;18.558;2023-06-26T03:03:45;100988.06;;;13.65;58.50
68807;BME280;55800;54.272;18.558;2023-06-26T03:06:19;100981.53;;;13.71;59.73
68807;BME280;55800;54.272;18.558;2023-06-26T03:08:49;100984.91;;;13.74;59.42
68807;BME280;55800;54.272;18.558;2023-06-26T03:11:18;100982.81;;;13.81;61.57
68807;BME280;55800;54.272;18.558;2023-06-26T03:13:47;100977.06;;;13.88;62.80
68807;BME280;55800;54.272;18.558;2023-06-26T03:16:17;100977.78;;;13.92;63.58
68807;BME280;55800;54.272;18.558;2023-06-26T03:18:46;100979.34;;;13.96;64.57
68807;BME280;55800;54.272;18.558;2023-06-26T03:21:16;100972.03;;;13.99;63.45
68807;BME280;55800;54.272;18.558;2023-06-26T03:23:47;100982.47;;;14.05;64.71
68807;BME280;55800;54.272;18.558;2023-06-26T03:26:17;100974.09;;;14.12;63.52
68807;BME280;55800;54.272;18.558;2023-06-26T03:28:48;100966.34;;;14.23;61.26
68807;BME280;55800;54.272;18.558;2023-06-26T03:31:18;100977.22;;;14.38;60.75
68807;BME280;55800;54.272;18.558;2023-06-26T03:33:48;100971.59;;;14.43;64.14
68807;BME280;55800;54.272;18.558;2023-06-26T03:36:17;100970.34;;;14.50;66.26
68807;BME280;55800;54.272;18.558;2023-06-26T03:38:48;100971.59;;;14.60;65.03
68807;BME280;55800;54.272;18.558;2023-06-26T03:41:17;100972.69;;;14.73;66.37
68807;BME280;55800;54.272;18.558;2023-06-26T03:43:46;100979.22;;;14.84;62.78
68807;BME280;55800;54.272;18.558;2023-06-26T03:46:23;100977.25;;;15.04;62.04
68807;BME280;55800;54.272;18.558;2023-06-26T03:48:52;100974.84;;;15.15;64.67
68807;BME280;55800;54.272;18.558;2023-06-26T03:51:21;100977.94;;;15.24;64.51
68807;BME280;55800;54.272;18.558;2023-06-26T03:53:53;100977.25;;;15.36;62.96
68807;BME280;55800;54.272;18.558;2023-06-26T03:56:22;100978.44;;;15.48;63.52
68807;BME280;55800;54.272;18.558;2023-06-26T03:58:51;100978.75;;;15.57;63.12
68807;BME280;55800;54.272;18.558;2023-06-26T04:01:21;100972.59;;;15.71;60.72
68807;BME280;55800;54.272;18.558;2023-06-26T04:03:50;100966.13;;;15.89;59.60
68807;BME280;55800;54.272;18.558;2023-06-26T04:06:20;100968.19;;;16.00;62.31
68807;BME280;55800;54.272;18.558;2023-06-26T04:08:49;100978.72;;;16.04;63.28
68807;BME280;55800;54.272;18.558;2023-06-26T04:11:19;100964.78;;;16.12;63.36
68807;BME280;55800;54.272;18.558;2023-06-26T04:13:49;100969.84;;;16.18;64.82
68807;BME280;55800;54.272;18.558;2023-06-26T04:16:21;100961.78;;;16.32;62.40
68807;BME280;55800;54.272;18.558;2023-06-26T04:18:52;100966.41;;;16.44;62.40
68807;BME280;55800;54.272;18.558;2023-06-26T04:21:24;100960.34;;;16.56;63.41
68807;BME280;55800;54.272;18.558;2023-06-26T04:23:53;100958.03;;;16.64;61.22
68807;BME280;55800;54.272;18.558;2023-06-26T04:26:24;100960.72;;;16.78;61.54
68807;BME280;55800;54.272;18.558;2023-06-26T04:28:53;100954.56;;;16.90;60.82
68807;BME280;55800;54.272;18.558;2023-06-26T04:31:23;100951.50;;;16.96;62.59
68807;BME280;55800;54.272;18.558;2023-06-26T04:33:52;100946.25;;;17.07;60.94
68807;BME280;55800;54.272;18.558;2023-06-26T04:36:23;100953.78;;;17.16;62.23
68807;BME280;55800;54.272;18.558;2023-06-26T04:38:56;100949.81;;;17.22;62.51
68807;BME280;55800;54.272;18.558;2023-06-26T04:41:28;100951.16;;;17.29;63.00
68807;BME280;55800;54.272;18.558;2023-06-26T04:43:57;100946.91;;;17.39;62.37
68807;BME280;55800;54.272;18.558;2023-06-26T04:46:26;100946.31;;;17.48;63.02
68807;BME280;55800;54.272;18.558;2023-06-26T04:48:56;100939.47;;;17.57;61.47
68807;BME280;55800;54.272;18.558;2023-06-26T04:51:26;100952.94;;;17.71;61.50
68807;BME280;55800;54.272;18.558;2023-06-26T04:53:57;100948.47;;;17.84;59.43
68807;BME280;55800;54.272;18.558;2023-06-26T04:56:27;100941.69;;;17.91;60.79
68807;BME280;55800;54.272;18.558;2023-06-26T04:58:58;100939.53;;;17.96;61.12
68807;BME280;55800;54.272;18.558;2023-06-26T05:01:28;100943.34;;;18.06;61.21
68807;BME280;55800;54.272;18.558;2023-06-26T05:03:57;100943.50;;;18.17;59.88
68807;BME280;55800;54.272;18.558;2023-06-26T05:06:27;100936.47;;;18.27;60.42
68807;BME280;55800;54.272;18.558;2023-06-26T05:08:56;100942.03;;;18.38;59.93
68807;BME280;55800;54.272;18.558;2023-06-26T05:11:27;100948.97;;;18.42;61.22
68807;BME280;55800;54.272;18.558;2023-06-26T05:13:56;100941.22;;;18.50;60.50
68807;BME280;55800;54.272;18.558;2023-06-26T05:16:25;100937.88;;;18.59;60.26
68807;BME280;55800;54.272;18.558;2023-06-26T05:18:54;100939.91;;;18.68;60.23
68807;BME280;55800;54.272;18.558;2023-06-26T05:21:24;100943.50;;;18.82;58.34
68807;BME280;55800;54.272;18.558;2023-06-26T05:23:57;100942.66;;;18.94;59.46
68807;BME280;55800;54.272;18.558;2023-06-26T05:26:29;100941.97;;;19.03;58.06
68807;BME280;55800;54.272;18.558;2023-06-26T05:28:58;100937.63;;;19.13;58.60
68807;BME280;55800;54.272;18.558;2023-06-26T05:31:29;100936.94;;;19.22;57.18
68807;BME280;55800;54.272;18.558;2023-06-26T05:34:02;100933.41;;;19.34;56.94
68807;BME280;55800;54.272;18.558;2023-06-26T05:36:34;100937.16;;;19.44;56.58
68807;BME280;55800;54.272;18.558;2023-06-26T05:39:04;100930.41;;;19.50;57.30
68807;BME280;55800;54.272;18.558;2023-06-26T05:41:36;100935.38;;;19.56;57.60
68807;BME280;55800;54.272;18.558;2023-06-26T05:44:05;100930.28;;;19.64;57.47
68807;BME280;55800;54.272;18.558;2023-06-26T05:46:34;100931.19;;;19.75;56.77
68807;BME280;55800;54.272;18.558;2023-06-26T05:49:03;100928.28;;;19.89;55.85
68807;BME280;55800;54.272;18.558;2023-06-26T05:51:34;100924.16;;;19.96;56.21
68807;BME280;55800;54.272;18.558;2023-06-26T05:54:03;100928.00;;;20.05;55.93
68807;BME280;55800;54.272;18.558;2023-06-26T05:56:35;100927.06;;;20.17;55.58
68807;BME280;55800;54.272;18.558;2023-06-26T05:59:06;100923.69;;;20.26;56.06
68807;BME280;55800;54.272;18.558;2023-06-26T06:01:37;100922.38;;;20.32;55.63
68807;BME280;55800;54.272;18.558;2023-06-26T06:04:06;100921.63;;;20.41;55.52
68807;BME280;55800;54.272;18.558;2023-06-26T06:06:35;100917.97;;;20.53;55.15
68807;BME280;55800;54.272;18.558;2023-06-26T06:09:04;100922.44;;;20.65;54.50
68807;BME280;55800;54.272;18.558;2023-06-26T06:11:35;100917.78;;;20.78;54.31
68807;BME280;55800;54.272;18.558;2023-06-26T06:14:05;100919.38;;;20.91;54.04
68807;BME280;55800;54.272;18.558;2023-06-26T06:16:34;100923.88;;;21.04;54.06
68807;BME280;55800;54.272;18.558;2023-06-26T06:19:04;100923.75;;;21.16;53.82
68807;BME280;55800;54.272;18.558;2023-06-26T06:21:35;100922.75;;;21.28;53.60
68807;BME280;55800;54.272;18.558;2023-06-26T06:24:05;100921.75;;;21.40;53.14
68807;BME280;55800;54.272;18.558;2023-06-26T06:26:36;100922.47;;;21.53;52.87
68807;BME280;55800;54.272;18.558;2023-06-26T06:29:06;100926.88;;;21.65;51.95
68807;BME280;55800;54.272;18.558;2023-06-26T06:31:35;100931.44;;;21.76;51.93
68807;BME280;55800;54.272;18.558;2023-06-26T06:34:04;100919.81;;;21.85;51.73
68807;BME280;55800;54.272;18.558;2023-06-26T06:36:34;100923.50;;;21.95;51.42
68807;BME280;55800;54.272;18.558;2023-06-26T06:39:04;100914.69;;;22.03;50.50
68807;BME280;55800;54.272;18.558;2023-06-26T06:41:33;100915.03;;;22.09;50.57
68807;BME280;55800;54.272;18.558;2023-06-26T06:44:07;100917.56;;;22.22;50.86
68807;BME280;55800;54.272;18.558;2023-06-26T06:46:37;100919.53;;;22.31;50.72
68807;BME280;55800;54.272;18.558;2023-06-26T06:49:06;100919.44;;;22.42;50.51
68807;BME280;55800;54.272;18.558;2023-06-26T06:51:36;100915.66;;;22.54;51.03
68807;BME280;55800;54.272;18.558;2023-06-26T06:54:05;100915.75;;;22.64;50.79
68807;BME280;55800;54.272;18.558;2023-06-26T06:56:34;100912.81;;;22.76;50.52
68807;BME280;55800;54.272;18.558;2023-06-26T06:59:03;100919.19;;;22.86;50.55
68807;BME280;55800;54.272;18.558;2023-06-26T07:01:34;100915.38;;;22.98;50.41
68807;BME280;55800;54.272;18.558;2023-06-26T07:04:04;100920.88;;;23.08;50.18
68807;BME280;55800;54.272;18.558;2023-06-26T07:06:33;100915.75;;;23.14;48.16
68807;BME280;55800;54.272;18.558;2023-06-26T07:09:02;100916.31;;;23.18;47.77
68807;BME280;55800;54.272;18.558;2023-06-26T07:11:32;100916.38;;;23.27;47.79
68807;BME280;55800;54.272;18.558;2023-06-26T07:14:01;100915.44;;;23.38;48.48
68807;BME280;55800;54.272;18.558;2023-06-26T07:16:31;100909.00;;;23.49;48.83
68807;BME280;55800;54.272;18.558;2023-06-26T07:19:02;100906.44;;;23.57;49.01
68807;BME280;55800;54.272;18.558;2023-06-26T07:21:31;100915.38;;;23.68;49.02
68807;BME280;55800;54.272;18.558;2023-06-26T07:24:00;100909.06;;;23.77;49.24
68807;BME280;55800;54.272;18.558;2023-06-26T07:26:30;100899.88;;;23.88;48.89
68807;BME280;55800;54.272;18.558;2023-06-26T07:29:12;100908.09;;;23.97;49.04
68807;BME280;55800;54.272;18.558;2023-06-26T07:31:41;100912.59;;;24.08;48.76
68807;BME280;55800;54.272;18.558;2023-06-26T07:34:13;100907.25;;;24.16;49.03
68807;BME280;55800;54.272;18.558;2023-06-26T07:36:43;100891.88;;;24.25;49.12
68807;BME280;55800;54.272;18.558;2023-06-26T07:39:12;100900.06;;;24.34;47.81
68807;BME280;55800;54.272;18.558;2023-06-26T07:41:49;100900.19;;;24.42;48.18
68807;BME280;55800;54.272;18.558;2023-06-26T07:44:18;100895.88;;;24.49;47.81
68807;BME280;55800;54.272;18.558;2023-06-26T07:46:48;100897.88;;;24.57;47.87
68807;BME280;55800;54.272;18.558;2023-06-26T07:49:18;100893.84;;;24.61;47.47
68807;BME280;55800;54.272;18.558;2023-06-26T07:51:48;100895.84;;;24.68;47.14
68807;BME280;55800;54.272;18.558;2023-06-26T07:54:17;100898.97;;;24.73;47.39
68807;BME280;55800;54.272;18.558;2023-06-26T07:56:54;100892.66;;;24.83;48.14
68807;BME280;55800;54.272;18.558;2023-06-26T07:59:25;100900.97;;;24.91;48.31
68807;BME280;55800;54.272;18.558;2023-06-26T08:01:56;100894.63;;;25.00;48.36
68807;BME280;55800;54.272;18.558;2023-06-26T08:04:28;100901.94;;;25.09;47.96
68807;BME280;55800;54.272;18.558;2023-06-26T08:07:01;100897.47;;;25.08;47.15
68807;BME280;55800;54.272;18.558;2023-06-26T08:09:32;100894.56;;;25.09;47.25
68807;BME280;55800;54.272;18.558;2023-06-26T08:12:02;100894.44;;;25.11;46.54
68807;BME280;55800;54.272;18.558;2023-06-26T08:14:33;100887.34;;;25.18;47.24
68807;BME280;55800;54.272;18.558;2023-06-26T08:17:04;100890.16;;;25.26;47.67
68807;BME280;55800;54.272;18.558;2023-06-26T08:19:34;100886.97;;;25.30;47.55
68807;BME280;55800;54.272;18.558;2023-06-26T08:22:05;100888.41;;;25.34;47.37
68807;BME280;55800;54.272;18.558;2023-06-26T08:24:34;100894.44;;;25.38;46.94
68807;BME280;55800;54.272;18.558;2023-06-26T08:27:05;100890.44;;;25.42;47.28
68807;BME280;55800;54.272;18.558;2023-06-26T08:29:35;100889.81;;;25.48;47.66
68807;BME280;55800;54.272;18.558;2023-06-26T08:32:05;100891.38;;;25.50;47.58
68807;BME280;55800;54.272;18.558;2023-06-26T08:34:36;100892.63;;;25.56;47.09
68807;BME280;55800;54.272;18.558;2023-06-26T08:37:06;100890.59;;;25.58;46.14
68807;BME280;55800;54.272;18.558;2023-06-26T08:39:37;100887.41;;;25.63;46.79
68807;BME280;55800;54.272;18.558;2023-06-26T08:42:06;100886.09;;;25.67;47.00
68807;BME280;55800;54.272;18.558;2023-06-26T08:44:35;100876.41;;;25.72;47.33
68807;BME280;55800;54.272;18.558;2023-06-26T08:47:20;100879.22;;;25.80;47.21
68807;BME280;55800;54.272;18.558;2023-06-26T08:49:56;100880.34;;;25.87;47.53
68807;BME280;55800;54.272;18.558;2023-06-26T08:52:33;100883.28;;;25.94;47.45
68807;BME280;55800;54.272;18.558;2023-06-26T08:55:08;100877.03;;;26.01;47.55
68807;BME280;55800;54.272;18.558;2023-06-26T08:57:38;100874.66;;;26.06;46.94
68807;BME280;55800;54.272;18.558;2023-06-26T09:00:09;100874.09;;;26.12;46.85
68807;BME280;55800;54.272;18.558;2023-06-26T09:02:39;100868.16;;;26.17;47.28
68807;BME280;55800;54.272;18.558;2023-06-26T09:05:14;100873.69;;;26.25;46.69
68807;BME280;55800;54.272;18.558;2023-06-26T09:07:44;100869.78;;;26.27;46.85
68807;BME280;55800;54.272;18.558;2023-06-26T09:10:13;100873.94;;;26.32;46.54
68807;BME280;55800;54.272;18.558;2023-06-26T09:12:46;100873.28;;;26.38;46.92
68807;BME280;55800;54.272;18.558;2023-06-26T09:15:16;100872.94;;;26.41;46.64
68807;BME280;55800;54.272;18.558;2023-06-26T09:17:49;100866.13;;;26.45;46.19
68807;BME280;55800;54.272;18.558;2023-06-26T09:20:20;100874.34;;;26.45;46.62
68807;BME280;55800;54.272;18.558;2023-06-26T09:22:49;100865.81;;;26.48;45.22
68807;BME280;55800;54.272;18.558;2023-06-26T09:25:19;100867.38;;;26.50;45.47
68807;BME280;55800;54.272;18.558;2023-06-26T09:27:51;100861.72;;;26.52;44.73
68807;BME280;55800;54.272;18.558;2023-06-26T09:30:21;100874.56;;;26.51;44.65
68807;BME280;55800;54.272;18.558;2023-06-26T09:32:51;100867.56;;;26.49;44.15
68807;BME280;55800;54.272;18.558;2023-06-26T09:35:24;100866.84;;;26.47;43.67
68807;BME280;55800;54.272;18.558;2023-06-26T09:37:56;100854.44;;;26.43;43.37
68807;BME280;55800;54.272;18.558;2023-06-26T09:40:26;100861.13;;;26.40;43.80
68807;BME280;55800;54.272;18.558;2023-06-26T09:43:03;100854.16;;;26.46;43.87
68807;BME280;55800;54.272;18.558;2023-06-26T09:45:32;100854.44;;;26.43;42.78
68807;BME280;55800;54.272;18.558;2023-06-26T09:48:05;100854.78;;;26.40;42.80
68807;BME280;55800;54.272;18.558;2023-06-26T09:50:37;100844.91;;;26.47;43.51
68807;BME280;55800;54.272;18.558;2023-06-26T09:53:30;100846.31;;;26.51;43.70
68807;BME280;55800;54.272;18.558;2023-06-26T09:56:06;100837.75;;;26.54;44.14
68807;BME280;55800;54.272;18.558;2023-06-26T09:58:36;100836.94;;;26.61;44.16
68807;BME280;55800;54.272;18.558;2023-06-26T10:01:05;100845.72;;;26.65;44.25
68807;BME280;55800;54.272;18.558;2023-06-26T10:03:38;100847.78;;;26.71;44.22
68807;BME280;55800;54.272;18.558;2023-06-26T10:06:09;100848.34;;;26.74;43.94
68807;BME280;55800;54.272;18.558;2023-06-26T10:08:40;100839.34;;;26.82;44.13
68807;BME280;55800;54.272;18.558;2023-06-26T10:11:14;100840.72;;;26.86;43.65
68807;BME280;55800;54.272;18.558;2023-06-26T10:13:48;100833.72;;;26.91;43.68
68807;BME280;55800;54.272;18.558;2023-06-26T10:16:22;100830.69;;;27.02;44.30
68807;BME280;55800;54.272;18.558;2023-06-26T10:18:56;100829.19;;;27.08;43.18
68807;BME280;55800;54.272;18.558;2023-06-26T10:21:29;100828.53;;;27.14;43.66
68807;BME280;55800;54.272;18.558;2023-06-26T10:23:59;100824.06;;;27.21;43.30
68807;BME280;55800;54.272;18.558;2023-06-26T10:26:30;100819.13;;;27.25;43.41
68807;BME280;55800;54.272;18.558;2023-06-26T10:29:00;100822.00;;;27.23;42.23
68807;BME280;55800;54.272;18.558;2023-06-26T10:31:31;100821.38;;;27.29;43.01
68807;BME280;55800;54.272;18.558;2023-06-26T10:34:02;100821.03;;;27.32;42.38
68807;BME280;55800;54.272;18.558;2023-06-26T10:36:36;100812.84;;;27.40;42.91
68807;BME280;55800;54.272;18.558;2023-06-26T10:39:06;100816.63;;;27.47;42.88
68807;BME280;55800;54.272;18.558;2023-06-26T10:41:39;100812.91;;;27.56;43.58
68807;BME280;55800;54.272;18.558;2023-06-26T10:44:41;100802.91;;;27.55;41.94
68807;BME280;55800;54.272;18.558;2023-06-26T10:47:11;100806.72;;;27.62;41.81
68807;BME280;55800;54.272;18.558;2023-06-26T10:49:47;100800.03;;;27.65;41.43
68807;BME280;55800;54.272;18.558;2023-06-26T10:52:38;100793.34;;;27.67;41.09
68807;BME280;55800;54.272;18.558;2023-06-26T10:55:08;100794.72;;;27.71;40.71
68807;BME280;55800;54.272;18.558;2023-06-26T10:57:38;100790.59;;;27.75;40.57
68807;BME280;55800;54.272;18.558;2023-06-26T11:00:11;100790.59;;;27.83;41.56
68807;BME280;55800;54.272;18.558;2023-06-26T11:02:48;100790.28;;;27.87;40.13
68807;BME280;55800;54.272;18.558;2023-06-26T11:05:25;100791.66;;;27.91;40.43
68807;BME280;55800;54.272;18.558;2023-06-26T11:08:07;100790.81;;;27.98;41.11
68807;BME280;55800;54.272;18.558;2023-06-26T11:10:59;100785.47;;;28.05;41.09
68807;BME280;55800;54.272;18.558;2023-06-26T11:13:30;100790.47;;;28.09;39.79
68807;BME280;55800;54.272;18.558;2023-06-26T11:16:06;100785.47;;;28.13;40.72
68807;BME280;55800;54.272;18.558;2023-06-26T11:18:35;100777.56;;;28.18;39.44
68807;BME280;55800;54.272;18.558;2023-06-26T11:21:08;100774.63;;;28.19;39.29
68807;BME280;55800;54.272;18.558;2023-06-26T11:23:40;100777.56;;;28.26;40.19
68807;BME280;55800;54.272;18.558;2023-06-26T11:26:16;100773.44;;;28.30;39.63
68807;BME280;55800;54.272;18.558;2023-06-26T11:28:51;100773.25;;;28.31;40.00
68807;BME280;55800;54.272;18.558;2023-06-26T11:31:27;100777.38;;;28.35;39.39
68807;BME280;55800;54.272;18.558;2023-06-26T11:33:59;100769.81;;;28.37;39.36
68807;BME280;55800;54.272;18.558;2023-06-26T11:36:29;100761.19;;;28.40;39.16
68807;BME280;55800;54.272;18.558;2023-06-26T11:39:01;100764.28;;;28.45;39.26
68807;BME280;55800;54.272;18.558;2023-06-26T11:41:33;100764.09;;;28.47;39.32
68807;BME280;55800;54.272;18.558;2023-06-26T11:44:03;100761.69;;;28.52;39.29
68807;BME280;55800;54.272;18.558;2023-06-26T11:46:35;100759.81;;;28.61;39.45
68807;BME280;55800;54.272;18.558;2023-06-26T11:49:09;100753.06;;;28.63;38.51
68807;BME280;55800;54.272;18.558;2023-06-26T11:51:38;100758.25;;;28.66;38.86
68807;BME280;55800;54.272;18.558;2023-06-26T11:54:10;100758.59;;;28.71;38.05
68807;BME280;55800;54.272;18.558;2023-06-26T11:56:41;100749.94;;;28.74;38.26
68807;BME280;55800;54.272;18.558;2023-06-26T11:59:11;100754.59;;;28.82;37.85
68807;BME280;55800;54.272;18.558;2023-06-26T12:01:42;100749.22;;;28.88;38.90
68807;BME280;55800;54.272;18.558;2023-06-26T12:04:16;100738.50;;;28.93;37.78
68807;BME280;55800;54.272;18.558;2023-06-26T12:06:49;100745.38;;;28.97;36.99
68807;BME280;55800;54.272;18.558;2023-06-26T12:09:21;100752.63;;;28.98;36.82
68807;BME280;55800;54.272;18.558;2023-06-26T12:11:53;100743.28;;;29.07;37.20
68807;BME280;55800;54.272;18.558;2023-06-26T12:14:24;100742.72;;;29.12;37.21
68807;BME280;55800;54.272;18.558;2023-06-26T12:16:56;100744.13;;;29.16;36.72
68807;BME280;55800;54.272;18.558;2023-06-26T12:19:36;100736.53;;;29.18;36.48
68807;BME280;55800;54.272;18.558;2023-06-26T12:22:07;100738.56;;;29.24;35.64
68807;BME280;55800;54.272;18.558;2023-06-26T12:24:39;100740.94;;;29.27;36.83
68807;BME280;55800;54.272;18.558;2023-06-26T12:27:11;100736.44;;;29.34;36.17
68807;BME280;55800;54.272;18.558;2023-06-26T12:29:46;100734.00;;;29.39;35.77
68807;BME280;55800;54.272;18.558;2023-06-26T12:32:18;100729.66;;;29.45;36.92
68807;BME280;55800;54.272;18.558;2023-06-26T12:34:49;100723.78;;;29.48;36.11
68807;BME280;55800;54.272;18.558;2023-06-26T12:37:19;100726.53;;;29.48;34.78
68807;BME280;55800;54.272;18.558;2023-06-26T12:39:51;100721.03;;;29.48;35.52
68807;BME280;55800;54.272;18.558;2023-06-26T12:42:23;100727.16;;;29.58;35.21
68807;BME280;55800;54.272;18.558;2023-06-26T12:44:53;100718.88;;;29.58;33.77
68807;BME280;55800;54.272;18.558;2023-06-26T12:47:27;100712.28;;;29.67;36.31
68807;BME280;55800;54.272;18.558;2023-06-26T12:49:57;100712.56;;;29.72;34.64
68807;BME280;55800;54.272;18.558;2023-06-26T12:52:27;100712.91;;;29.77;34.14
68807;BME280;55800;54.272;18.558;2023-06-26T12:54:57;100702.16;;;29.82;33.37
68807;BME280;55800;54.272;18.558;2023-06-26T12:57:27;100703.53;;;29.86;34.64
68807;BME280;55800;54.272;18.558;2023-06-26T12:59:56;100698.94;;;29.93;33.99
68807;BME280;55800;54.272;18.558;2023-06-26T13:02:25;100696.31;;;29.99;34.94
68807;BME280;55800;54.272;18.558;2023-06-26T13:04:55;100680.94;;;30.05;34.15